Time;durP1;ratioP1;P1;durP2;ratioP2;P2;SDS_P1;SDS_P2;PMS_P1;PMS_P2;Temp;Humidity;BMP_temperature;BMP_pressure;BME280_temperature;BME280_humidity;BME280_pressure;Samples;Min_cycle;Max_cycle;Signal;HPM_P1;HPM_P2
2023/07/28 00:01:39;;;;;;;10.07;4.80;;;23.00;74.20;;;;;;4918758;29;20039;-80
2023/07/28 00:04:07;;;;;;;8.13;4.97;;;23.00;74.10;;;;;;4918189;29;20036;-81
2023/07/28 00:06:33;;;;;;;9.18;4.78;;;23.00;74.30;;;;;;4919346;29;20092;-80
2023/07/28 00:08:59;;;;;;;8.63;4.68;;;23.00;74.60;;;;;;4919608;29;20437;-81
2023/07/28 00:11:25;;;;;;;13.97;4.97;;;22.90;74.50;;;;;;4920014;29;20031;-80
2023/07/28 00:13:50;;;;;;;16.60;5.20;;;22.90;74.70;;;;;;4920297;29;20043;-80
2023/07/28 00:16:16;;;;;;;8.80;5.87;;;22.80;75.10;;;;;;4919985;29;20024;-80
2023/07/28 00:18:42;;;;;;;6.67;5.03;;;22.80;75.30;;;;;;4918689;29;20039;-80
2023/07/28 00:21:08;;;;;;;7.57;4.93;;;22.80;75.50;;;;;;4902227;29;20059;-80
2023/07/28 00:23:34;;;;;;;8.60;5.40;;;22.70;75.40;;;;;;4919068;29;20036;-80
2023/07/28 00:25:59;;;;;;;7.47;4.60;;;22.80;75.60;;;;;;4922740;29;20608;-80
2023/07/28 00:28:25;;;;;;;7.93;5.10;;;22.70;75.70;;;;;;4918872;29;20369;-80
2023/07/28 00:30:52;;;;;;;;;;;22.60;75.90;;;;;;4917117;29;20040;-80
2023/07/28 00:33:18;;;;;;;11.98;5.68;;;22.60;76.50;;;;;;4902396;29;19911;-81
2023/07/28 00:35:44;;;;;;;6.70;4.80;;;22.60;76.10;;;;;;4901884;29;20403;-80
2023/07/28 00:38:10;;;;;;;11.27;6.07;;;22.60;76.20;;;;;;4900483;29;20045;-81
2023/07/28 00:40:36;;;;;;;10.10;5.67;;;22.60;76.30;;;;;;4900334;29;20040;-80
2023/07/28 00:43:02;;;;;;;8.82;5.97;;;22.60;76.50;;;;;;4902140;29;20064;-80
2023/07/28 00:45:30;;;;;;;6.82;6.13;;;22.60;76.50;;;;;;4905320;29;20126;-80
2023/07/28 00:47:59;;;;;;;9.85;6.32;;;22.60;76.60;;;;;;4934529;29;20032;-80
2023/07/28 00:50:26;;;;;;;7.97;5.78;;;22.50;76.50;;;;;;4919119;29;20080;-80
2023/07/28 00:52:52;;;;;;;8.85;6.25;;;22.50;76.50;;;;;;4934767;29;20047;-80
2023/07/28 00:55:18;;;;;;;10.23;6.13;;;22.50;76.50;;;;;;4920550;29;20024;-80
2023/07/28 00:57:44;;;;;;;9.73;6.15;;;22.50;76.80;;;;;;4923614;29;20032;-80
2023/07/28 01:00:13;;;;;;;12.97;6.37;;;22.40;76.80;;;;;;4924500;29;20515;-80
2023/07/28 01:02:40;;;;;;;8.98;6.40;;;22.40;76.90;;;;;;4906748;29;20029;-81
2023/07/28 01:05:06;;;;;;;;;;;22.40;77.20;;;;;;4923241;29;20035;-81
2023/07/28 01:07:52;;;;;;;12.60;7.18;;;22.30;76.30;;;;;;4922141;29;19946;-81
2023/07/28 01:10:26;;;;;;;10.80;7.25;;;22.30;76.90;;;;;;4931338;29;20040;-80
2023/07/28 01:12:52;;;;;;;10.57;6.95;;;22.30;77.20;;;;;;4923044;29;20035;-80
2023/07/28 01:15:18;;;;;;;8.73;6.72;;;22.30;77.20;;;;;;4922519;29;20024;-80
2023/07/28 01:17:43;;;;;;;9.27;7.00;;;22.30;77.70;;;;;;4922243;29;20032;-80
2023/07/28 01:20:10;;;;;;;7.40;6.50;;;22.20;78.30;;;;;;4923634;29;20483;-80
2023/07/28 01:22:39;;;;;;;;;;;22.20;78.00;;;;;;4922043;29;20024;-80
2023/07/28 01:25:25;;;;;;;10.57;6.70;;;22.10;78.60;;;;;;4921437;29;19978;-81
2023/07/28 01:27:53;;;;;;;9.20;6.40;;;22.00;78.40;;;;;;4911873;29;20446;-81
2023/07/28 01:30:21;;;;;;;9.27;7.72;;;22.00;78.40;;;;;;4922078;29;20028;-81
2023/07/28 01:32:47;;;;;;;8.35;7.07;;;22.00;78.60;;;;;;4930639;29;20033;-81
2023/07/28 01:35:13;;;;;;;8.90;7.25;;;22.00;78.70;;;;;;4904083;29;20404;-81
2023/07/28 01:37:39;;;;;;;10.63;6.57;;;21.90;79.00;;;;;;4919068;29;20020;-81
2023/07/28 01:40:06;;;;;;;14.63;7.25;;;21.90;79.00;;;;;;4922203;29;20028;-80
2023/07/28 01:42:31;;;;;;;9.57;7.00;;;21.90;79.10;;;;;;4923505;29;20111;-81
2023/07/28 01:44:57;;;;;;;7.63;6.87;;;21.90;79.30;;;;;;4906250;29;20466;-80
2023/07/28 01:47:25;;;;;;;10.13;7.27;;;21.90;79.30;;;;;;4922190;29;20403;-81
2023/07/28 01:49:51;;;;;;;11.88;6.75;;;21.90;79.40;;;;;;4918408;29;20047;-80
2023/07/28 01:52:16;;;;;;;12.93;7.07;;;21.90;79.80;;;;;;4903377;29;20025;-81
2023/07/28 01:54:42;;;;;;;8.80;6.72;;;21.90;79.80;;;;;;4904655;29;20116;-81
2023/07/28 01:57:08;;;;;;;8.55;7.13;;;21.90;79.70;;;;;;4903487;29;20129;-80
2023/07/28 01:59:34;;;;;;;11.75;6.10;;;21.80;79.40;;;;;;4919424;29;20029;-80
2023/07/28 02:02:00;;;;;;;10.48;7.22;;;21.80;79.70;;;;;;4904154;29;20059;-80
2023/07/28 02:04:26;;;;;;;11.57;7.30;;;21.80;79.60;;;;;;4904208;29;20060;-82
2023/07/28 02:06:51;;;;;;;10.20;7.43;;;21.80;79.80;;;;;;4917589;29;20097;-82
2023/07/28 02:09:18;;;;;;;8.77;6.50;;;21.80;80.10;;;;;;4918610;29;20064;-81
2023/07/28 02:11:43;;;;;;;10.57;6.80;;;21.70;80.20;;;;;;4919096;29;20157;-82
2023/07/28 02:14:09;;;;;;;12.43;7.93;;;21.70;80.30;;;;;;4921066;29;20484;-82
2023/07/28 02:16:35;;;;;;;9.20;6.77;;;21.80;80.20;;;;;;4921576;29;20055;-82
2023/07/28 02:19:01;;;;;;;11.13;7.80;;;21.70;80.80;;;;;;4921264;29;20028;-82
2023/07/28 02:21:28;;;;;;;10.48;7.07;;;21.80;80.30;;;;;;4921952;29;20043;-82
2023/07/28 02:23:53;;;;;;;16.45;7.65;;;21.80;80.30;;;;;;4922324;29;20035;-82
2023/07/28 02:26:19;;;;;;;16.48;8.63;;;21.70;80.20;;;;;;4922727;29;20434;-81
2023/07/28 02:28:45;;;;;;;9.82;7.10;;;21.80;80.20;;;;;;4921241;29;20032;-81
2023/07/28 02:31:13;;;;;;;12.45;7.43;;;21.70;80.20;;;;;;4921347;29;20028;-81
2023/07/28 02:33:39;;;;;;;8.63;7.57;;;21.80;80.20;;;;;;4922525;29;20046;-82
2023/07/28 02:36:05;;;;;;;12.70;8.25;;;21.70;80.30;;;;;;4922707;29;20032;-82
2023/07/28 02:38:31;;;;;;;9.00;7.00;;;21.70;80.20;;;;;;4922366;29;20100;-82
2023/07/28 02:40:57;;;;;;;10.20;7.57;;;21.70;80.50;;;;;;4921022;29;20055;-82
2023/07/28 02:43:22;;;;;;;10.57;6.93;;;21.60;80.40;;;;;;4921135;29;20107;-82
2023/07/28 02:45:54;;;;;;;11.48;7.80;;;21.60;80.50;;;;;;4922333;29;20381;-81
2023/07/28 02:48:23;;;;;;;11.35;6.85;;;21.60;80.60;;;;;;4920657;29;20044;-81
2023/07/28 02:50:52;;;;;;;11.57;7.32;;;21.60;81.00;;;;;;4918286;29;20040;-82
2023/07/28 02:53:19;;;;;;;10.18;7.57;;;21.50;80.90;;;;;;4920981;29;20028;-82
2023/07/28 02:55:46;;;;;;;16.10;8.95;;;21.50;81.00;;;;;;4921788;29;20145;-82
2023/07/28 02:58:13;;;;;;;13.57;7.20;;;21.50;81.10;;;;;;4921135;29;20024;-81
2023/07/28 03:00:40;;;;;;;14.48;7.63;;;21.50;81.30;;;;;;4920414;29;20080;-82
2023/07/28 03:03:10;;;;;;;15.82;7.95;;;21.40;81.20;;;;;;4905248;29;20036;-81
2023/07/28 03:05:37;;;;;;;13.80;7.32;;;21.40;81.20;;;;;;4920694;29;20032;-81
2023/07/28 03:08:13;;;;;;;13.68;7.43;;;21.40;81.40;;;;;;4920155;29;20032;-82
2023/07/28 03:10:39;;;;;;;12.50;7.37;;;21.30;81.60;;;;;;4920966;29;20053;-82
2023/07/28 03:13:05;;;;;;;8.95;7.28;;;21.30;81.70;;;;;;4920226;29;20123;-82
2023/07/28 03:15:31;;;;;;;9.67;8.17;;;21.30;81.90;;;;;;4920169;29;20032;-82
2023/07/28 03:17:57;;;;;;;16.38;7.70;;;21.20;81.60;;;;;;4916355;29;20040;-82
2023/07/28 03:20:22;;;;;;;9.48;7.47;;;21.20;82.00;;;;;;4905390;29;20035;-82
2023/07/28 03:22:48;;;;;;;13.77;8.18;;;21.20;82.10;;;;;;4918640;29;20039;-82
2023/07/28 03:25:14;;;;;;;16.40;8.10;;;21.20;82.10;;;;;;4923208;29;20024;-82
2023/07/28 03:27:40;;;;;;;16.83;8.07;;;21.20;82.30;;;;;;4920623;29;20038;-82
2023/07/28 03:30:10;;;;;;;9.55;7.35;;;21.20;82.10;;;;;;4920558;29;20546;-81
2023/07/28 03:32:37;;;;;;;9.60;7.57;;;21.20;82.10;;;;;;4920503;29;20032;-82
2023/07/28 03:35:05;;;;;;;10.93;7.63;;;21.20;82.40;;;;;;4936033;29;20032;-82
2023/07/28 03:37:33;;;;;;;10.70;7.82;;;21.20;82.30;;;;;;4919961;29;20029;-82
2023/07/28 03:39:59;;;;;;;9.60;7.72;;;21.20;82.30;;;;;;4920494;29;20028;-82
2023/07/28 03:42:35;;;;;;;13.43;8.00;;;21.20;82.00;;;;;;4919933;29;20028;-81
2023/07/28 03:45:01;;;;;;;9.82;7.97;;;21.20;82.10;;;;;;4920826;29;20042;-80
2023/07/28 03:47:26;;;;;;;14.38;8.13;;;21.20;82.50;;;;;;4919538;29;20551;-82
2023/07/28 03:49:52;;;;;;;14.70;8.75;;;21.20;82.10;;;;;;4920205;29;20080;-81
2023/07/28 03:52:18;;;;;;;8.43;7.60;;;21.20;82.30;;;;;;4921288;29;20033;-83
2023/07/28 03:54:44;;;;;;;12.85;7.78;;;21.20;82.20;;;;;;4921328;29;20530;-83
2023/07/28 03:57:10;;;;;;;12.55;7.32;;;21.20;82.10;;;;;;4919947;29;20423;-82
2023/07/28 03:59:36;;;;;;;10.95;7.22;;;21.20;82.20;;;;;;4921528;29;20032;-84
2023/07/28 04:02:02;;;;;;;12.88;7.93;;;21.30;82.20;;;;;;4905201;29;20139;-84
2023/07/28 04:04:28;;;;;;;9.53;7.47;;;21.30;82.20;;;;;;4924150;29;20511;-84
2023/07/28 04:06:54;;;;;;;9.23;7.53;;;21.30;82.20;;;;;;4922355;29;20104;-85
2023/07/28 04:09:20;;;;;;;10.63;7.15;;;21.20;82.40;;;;;;4921426;29;20339;-83
2023/07/28 04:11:46;;;;;;;11.25;7.93;;;21.20;82.50;;;;;;4904904;29;20032;-83
2023/07/28 04:14:12;;;;;;;11.13;6.90;;;21.20;82.30;;;;;;4904619;29;20044;-84
2023/07/28 04:16:38;;;;;;;8.70;7.80;;;21.20;82.30;;;;;;4920742;29;20039;-83
2023/07/28 04:19:04;;;;;;;10.53;6.80;;;21.20;82.10;;;;;;4921230;29;20464;-83
2023/07/28 04:21:30;;;;;;;10.15;8.38;;;21.30;82.10;;;;;;4904664;29;20065;-83
2023/07/28 04:23:56;;;;;;;13.00;7.33;;;21.30;82.20;;;;;;4904893;29;20464;-82
2023/07/28 04:26:24;;;;;;;11.10;7.85;;;21.30;81.80;;;;;;4921694;29;20020;-83
2023/07/28 04:28:56;;;;;;;9.20;7.20;;;21.40;81.80;;;;;;4921667;29;20039;-83
2023/07/28 04:31:21;;;;;;;9.13;7.35;;;21.40;81.70;;;;;;4921425;29;20024;-83
2023/07/28 04:33:57;;;;;;;9.77;6.93;;;21.40;81.60;;;;;;4924846;29;20024;-83
2023/07/28 04:36:27;;;;;;;12.82;7.03;;;21.40;81.60;;;;;;4915402;29;20032;-83
2023/07/28 04:38:53;;;;;;;12.77;6.82;;;21.40;81.80;;;;;;4921547;29;20056;-84
2023/07/28 04:41:19;;;;;;;10.70;6.50;;;21.40;81.60;;;;;;4939328;29;20024;-83
2023/07/28 04:43:51;;;;;;;16.35;7.85;;;21.50;81.50;;;;;;4940256;29;20674;-83
2023/07/28 04:46:18;;;;;;;11.82;7.38;;;21.50;81.50;;;;;;4941050;29;20032;-82
2023/07/28 04:48:48;;;;;;;10.40;6.72;;;21.40;81.50;;;;;;4925269;29;20024;-83
2023/07/28 04:51:33;;;;;;;12.65;7.20;;;21.40;81.90;;;;;;4940903;29;20035;-84
2023/07/28 04:54:32;;;;;;;10.65;6.70;;;21.30;81.80;;;;;;4909055;29;20047;-80
2023/07/28 04:56:57;;;;;;;13.55;7.50;;;21.30;82.00;;;;;;4939401;29;20099;-80
2023/07/28 04:59:30;;;;;;;11.30;6.75;;;21.30;82.20;;;;;;4937521;29;20016;-79
2023/07/28 05:01:56;;;;;;;9.50;7.40;;;21.30;82.40;;;;;;4938103;29;20092;-79
2023/07/28 05:04:22;;;;;;;13.10;8.23;;;21.30;82.50;;;;;;4938647;29;20039;-79
2023/07/28 05:06:48;;;;;;;13.23;7.80;;;21.30;82.60;;;;;;4956663;23;1242521;-82
2023/07/28 05:09:14;;;;;;;10.00;7.03;;;21.30;82.70;;;;;;4971124;28;20040;-82
2023/07/28 05:11:39;;;;;;;11.85;8.18;;;21.30;83.00;;;;;;4967089;29;20065;-81
2023/07/28 05:14:08;;;;;;;12.40;8.97;;;21.20;82.90;;;;;;4963794;28;20031;-83
2023/07/28 05:16:34;;;;;;;12.40;7.68;;;21.20;83.70;;;;;;4950789;28;20577;-82
2023/07/28 05:19:06;;;;;;;12.00;8.27;;;21.20;83.50;;;;;;4949960;29;20031;-84
2023/07/28 05:21:55;;;;;;;12.02;8.38;;;21.20;83.60;;;;;;4933656;29;20051;-84
2023/07/28 05:24:28;;;;;;;13.23;8.40;;;21.20;83.60;;;;;;4948050;29;20059;-83
2023/07/28 05:26:54;;;;;;;13.52;9.00;;;21.20;83.40;;;;;;4957828;29;20039;-85
2023/07/28 05:29:20;;;;;;;9.90;8.52;;;21.30;83.50;;;;;;4965469;29;20019;-85
2023/07/28 05:31:47;;;;;;;;;;;21.30;83.20;;;;;;4994867;28;20041;-82
2023/07/28 05:34:24;;;;;;;12.40;8.70;;;21.30;82.90;;;;;;4951745;29;20000;-82
2023/07/28 05:36:50;;;;;;;11.20;8.65;;;21.40;82.70;;;;;;4976987;29;20813;-81
2023/07/28 05:39:16;;;;;;;15.27;8.52;;;21.50;82.90;;;;;;4976304;28;20070;-81
2023/07/28 05:41:44;;;;;;;13.65;8.85;;;21.60;82.90;;;;;;4975745;28;20031;-82
2023/07/28 05:44:11;;;;;;;14.48;8.57;;;21.70;82.60;;;;;;4978732;28;20040;-82
2023/07/28 05:46:37;;;;;;;14.85;9.10;;;21.80;82.50;;;;;;4972447;29;20130;-84
2023/07/28 05:49:03;;;;;;;12.83;8.27;;;21.90;82.30;;;;;;4971270;29;20039;-83
2023/07/28 05:51:29;;;;;;;10.47;8.17;;;22.10;81.80;;;;;;4970803;29;20059;-83
2023/07/28 05:53:55;;;;;;;10.00;8.20;;;22.20;81.90;;;;;;4957189;29;20520;-83
2023/07/28 05:56:21;;;;;;;11.33;8.57;;;22.30;82.00;;;;;;4969082;29;20032;-84
2023/07/28 05:58:48;;;;;;;11.95;7.10;;;22.30;82.10;;;;;;4952439;29;20043;-84
2023/07/28 06:01:14;;;;;;;12.70;8.43;;;22.40;81.80;;;;;;4952120;29;20035;-83
2023/07/28 06:03:59;;;;;;;10.38;7.97;;;22.50;81.60;;;;;;4952527;29;20180;-82
2023/07/28 06:06:27;;;;;;;10.73;7.30;;;22.50;81.90;;;;;;4939265;29;20063;-83
2023/07/28 06:08:54;;;;;;;10.95;7.35;;;22.50;82.10;;;;;;4955063;29;20109;-81
2023/07/28 06:11:21;;;;;;;11.32;7.57;;;22.50;81.70;;;;;;4938471;29;20031;-80
2023/07/28 06:13:47;;;;;;;13.48;7.97;;;22.50;81.40;;;;;;4951952;29;20146;-81
2023/07/28 06:16:14;;;;;;;10.43;8.18;;;22.50;81.50;;;;;;4955962;29;20054;-82
2023/07/28 06:18:41;;;;;;;14.20;7.75;;;22.60;81.50;;;;;;4955250;29;20493;-82
2023/07/28 06:21:12;;;;;;;8.80;7.90;;;22.60;81.40;;;;;;4956857;28;20489;-81
2023/07/28 06:23:37;;;;;;;9.88;8.00;;;22.70;80.40;;;;;;4956184;29;20046;-81
2023/07/28 06:26:03;;;;;;;9.32;8.23;;;22.70;80.40;;;;;;4955513;29;20031;-82
2023/07/28 06:28:29;;;;;;;11.98;7.57;;;22.80;80.80;;;;;;4951745;29;20078;-78
2023/07/28 06:30:57;;;;;;;12.70;7.25;;;22.80;81.10;;;;;;4919275;29;20048;-77
2023/07/28 06:33:28;;;;;;;11.98;8.32;;;22.90;80.90;;;;;;4935069;29;20110;-77
2023/07/28 06:35:54;;;;;;;13.18;8.25;;;22.90;80.80;;;;;;4935263;29;20035;-77
2023/07/28 06:38:20;;;;;;;10.15;9.07;;;22.90;80.90;;;;;;4934669;29;20035;-77
2023/07/28 06:40:46;;;;;;;9.00;7.70;;;22.90;81.00;;;;;;4935051;29;20119;-77
2023/07/28 06:43:12;;;;;;;9.37;8.37;;;22.90;80.90;;;;;;4934164;29;20031;-77
2023/07/28 06:45:38;;;;;;;11.03;8.80;;;22.90;81.10;;;;;;4934885;29;20024;-77
2023/07/28 06:48:04;;;;;;;11.13;8.05;;;22.80;81.70;;;;;;4935954;29;20255;-77
2023/07/28 06:50:32;;;;;;;16.90;9.27;;;22.80;81.80;;;;;;4935061;29;20070;-77
2023/07/28 06:52:57;;;;;;;12.25;8.88;;;22.80;81.30;;;;;;4934887;29;20032;-80
2023/07/28 06:55:25;;;;;;;11.52;8.20;;;22.80;81.00;;;;;;4935664;29;20038;-84
2023/07/28 06:57:51;;;;;;;13.85;8.63;;;22.90;80.70;;;;;;4936006;29;20027;-81
2023/07/28 07:00:18;;;;;;;15.35;9.75;;;22.90;81.20;;;;;;4935973;29;20046;-81
2023/07/28 07:02:44;;;;;;;14.27;8.50;;;23.00;81.10;;;;;;4953402;29;20492;-83
2023/07/28 07:05:11;;;;;;;12.13;9.13;;;23.00;80.50;;;;;;4940527;29;20027;-81
2023/07/28 07:07:38;;;;;;;12.15;8.68;;;23.00;80.70;;;;;;4939272;29;20042;-82
2023/07/28 07:10:04;;;;;;;;;;;23.10;80.90;;;;;;4952127;29;20070;-82
2023/07/28 07:12:30;;;;;;;9.77;8.13;;;23.10;80.40;;;;;;4939056;28;19917;-81
2023/07/28 07:14:56;;;;;;;9.95;7.40;;;23.20;81.30;;;;;;4938340;29;20066;-83
2023/07/28 07:17:22;;;;;;;9.43;6.90;;;23.30;80.30;;;;;;4940060;29;20023;-82
2023/07/28 07:19:47;;;;;;;8.60;6.55;;;23.30;79.20;;;;;;4941069;29;20060;-85
2023/07/28 07:22:13;;;;;;;12.87;7.93;;;23.30;78.60;;;;;;4939460;29;20036;-83
2023/07/28 07:24:39;;;;;;;9.50;7.35;;;23.40;78.60;;;;;;4936368;29;20046;-83
2023/07/28 07:27:05;;;;;;;11.50;6.13;;;23.40;77.90;;;;;;4919345;29;20031;-81
2023/07/28 07:29:31;;;;;;;9.15;5.90;;;23.40;77.30;;;;;;4936476;29;20494;-79
2023/07/28 07:31:57;;;;;;;9.87;5.53;;;23.50;77.20;;;;;;4935780;29;20163;-79
2023/07/28 07:34:23;;;;;;;10.57;6.10;;;23.60;76.40;;;;;;4950384;29;20126;-80
2023/07/28 07:36:52;;;;;;;7.50;6.10;;;23.60;75.60;;;;;;4935445;29;20027;-81
2023/07/28 07:39:18;;;;;;;7.10;4.90;;;23.60;76.10;;;;;;4935487;29;20054;-80
2023/07/28 07:41:44;;;;;;;8.53;5.67;;;23.60;76.30;;;;;;4935074;29;20498;-80
2023/07/28 07:44:10;;;;;;;5.43;4.47;;;23.60;76.30;;;;;;4934211;29;20038;-81
2023/07/28 07:46:36;;;;;;;8.20;4.90;;;23.70;75.80;;;;;;4950326;29;20039;-79
2023/07/28 07:49:05;;;;;;;6.10;4.70;;;23.70;75.70;;;;;;4934391;29;20054;-80
2023/07/28 07:51:33;;;;;;;8.18;5.60;;;23.70;75.70;;;;;;4938758;29;20082;-82
2023/07/28 07:54:01;;;;;;;11.45;5.85;;;23.80;76.00;;;;;;4937468;29;20028;-81
2023/07/28 07:56:27;;;;;;;7.47;5.72;;;23.90;76.00;;;;;;4935389;29;20035;-81
2023/07/28 07:58:53;;;;;;;9.02;6.32;;;23.90;76.10;;;;;;4934327;29;20070;-80
2023/07/28 08:01:19;;;;;;;6.07;5.33;;;23.90;76.00;;;;;;4935078;29;20059;-80
2023/07/28 08:03:44;;;;;;;9.13;5.87;;;24.00;76.00;;;;;;4935829;29;20028;-81
2023/07/28 08:06:12;;;;;;;9.93;5.53;;;24.10;75.90;;;;;;4918534;29;20023;-79
2023/07/28 08:08:38;;;;;;;8.60;5.38;;;24.10;76.00;;;;;;4933976;29;20042;-80
2023/07/28 08:11:04;;;;;;;8.85;5.88;;;24.10;76.00;;;;;;4933680;29;20560;-80
2023/07/28 08:13:30;;;;;;;9.60;6.77;;;24.20;75.20;;;;;;4950044;29;20118;-80
2023/07/28 08:15:56;;;;;;;11.53;5.63;;;24.20;75.30;;;;;;4935860;29;20039;-78
2023/07/28 08:18:22;;;;;;;11.37;5.53;;;24.30;75.80;;;;;;4934863;29;20541;-79
2023/07/28 08:20:48;;;;;;;8.48;5.93;;;24.30;75.30;;;;;;4934920;29;20118;-79
2023/07/28 08:23:14;;;;;;;13.93;5.60;;;24.30;75.00;;;;;;4933538;29;20527;-79
2023/07/28 08:25:40;;;;;;;7.07;5.47;;;24.40;74.90;;;;;;4934806;29;20031;-79
2023/07/28 08:28:06;;;;;;;6.07;5.33;;;24.50;75.10;;;;;;4934990;29;20127;-80
2023/07/28 08:30:32;;;;;;;8.60;5.70;;;24.50;74.90;;;;;;4933437;29;20517;-80
2023/07/28 08:32:58;;;;;;;9.50;5.72;;;24.50;74.40;;;;;;4933458;29;20517;-79
2023/07/28 08:35:24;;;;;;;6.93;6.13;;;24.70;74.60;;;;;;4934941;29;20450;-79
2023/07/28 08:37:50;;;;;;;7.87;5.33;;;24.60;74.00;;;;;;4934775;29;20032;-79
2023/07/28 08:40:16;;;;;;;9.93;5.83;;;24.60;74.10;;;;;;4935080;29;20028;-79
2023/07/28 08:42:43;;;;;;;9.50;5.50;;;24.70;74.00;;;;;;4934530;29;20055;-79
2023/07/28 08:45:09;;;;;;;9.50;5.63;;;24.70;74.20;;;;;;4935180;29;20055;-79
2023/07/28 08:47:37;;;;;;;10.83;4.60;;;24.80;74.60;;;;;;4933877;29;20031;-80
2023/07/28 08:50:03;;;;;;;8.40;5.22;;;24.90;74.60;;;;;;4935599;29;20035;-79
2023/07/28 08:52:29;;;;;;;9.07;4.60;;;25.00;73.00;;;;;;4936289;29;20038;-80
2023/07/28 08:54:55;;;;;;;7.67;4.53;;;25.10;72.30;;;;;;4934975;29;20028;-80
2023/07/28 08:57:20;;;;;;;7.57;5.13;;;25.10;71.60;;;;;;4934669;29;20505;-80
2023/07/28 08:59:49;;;;;;;8.90;5.80;;;25.10;71.80;;;;;;4936621;29;20024;-79
2023/07/28 09:02:19;;;;;;;12.48;4.32;;;25.10;71.50;;;;;;4938151;29;20082;-80
2023/07/28 09:04:47;;;;;;;6.97;4.53;;;25.20;72.00;;;;;;4938639;29;20038;-80
2023/07/28 09:07:13;;;;;;;6.13;4.63;;;25.20;71.90;;;;;;4940082;29;20028;-81
2023/07/28 09:09:46;;;;;;;6.03;4.80;;;25.30;71.70;;;;;;4939382;29;20035;-79
2023/07/28 09:12:12;;;;;;;10.32;5.75;;;25.40;71.90;;;;;;4938144;29;20267;-79
2023/07/28 09:14:38;;;;;;;6.60;5.30;;;25.40;70.70;;;;;;4954562;29;20038;-79
2023/07/28 09:17:12;;;;;;;9.60;5.70;;;25.40;70.20;;;;;;4939136;29;20036;-80
2023/07/28 09:19:54;;;;;;;11.32;5.40;;;25.40;70.80;;;;;;4941628;29;20039;-79
2023/07/28 09:22:21;;;;;;;6.75;4.90;;;25.50;70.40;;;;;;4939288;29;20043;-79
2023/07/28 09:24:47;;;;;;;8.90;5.00;;;25.50;69.10;;;;;;4941487;29;20038;-79
2023/07/28 09:27:24;;;;;;;;;;;25.50;69.40;;;;;;4943062;29;20035;-79
2023/07/28 09:29:51;;;;;;;6.35;4.45;;;25.60;68.40;;;;;;4942617;29;19942;-80
2023/07/28 09:32:36;;;;;;;5.32;3.92;;;25.70;69.10;;;;;;4956769;29;20569;-79
2023/07/28 09:35:10;;;;;;;6.95;3.90;;;25.80;67.90;;;;;;4940389;29;20031;-79
2023/07/28 09:37:42;;;;;;;8.90;4.78;;;25.90;66.10;;;;;;4940812;29;20127;-79
2023/07/28 09:40:19;;;;;;;8.05;5.03;;;25.90;66.00;;;;;;4942407;29;20118;-79
2023/07/28 09:42:49;;;;;;;7.95;4.78;;;25.80;65.50;;;;;;4942635;29;20030;-79
2023/07/28 09:45:16;;;;;;;8.88;4.65;;;25.80;68.00;;;;;;4941581;29;20035;-79
2023/07/28 09:47:45;;;;;;;9.60;4.78;;;25.90;66.70;;;;;;4942367;29;20059;-80
2023/07/28 09:50:15;;;;;;;7.50;4.57;;;26.00;66.50;;;;;;4939491;29;20446;-79
2023/07/28 09:52:45;;;;;;;8.88;4.88;;;26.10;67.90;;;;;;4940829;29;20068;-79
2023/07/28 09:55:13;;;;;;;5.47;4.97;;;26.20;66.20;;;;;;4941675;29;20048;-79
2023/07/28 09:57:53;;;;;;;6.47;4.43;;;26.20;66.30;;;;;;4942325;29;20103;-79
2023/07/28 10:00:22;;;;;;;9.65;4.90;;;26.30;65.10;;;;;;4941055;29;20039;-79
2023/07/28 10:02:48;;;;;;;5.22;4.70;;;26.30;65.60;;;;;;4940892;29;20027;-79
2023/07/28 10:05:15;;;;;;;6.28;3.72;;;26.30;64.90;;;;;;4940841;29;20031;-80
2023/07/28 10:07:43;;;;;;;6.75;4.32;;;26.40;65.00;;;;;;4941693;29;20110;-80
2023/07/28 10:10:13;;;;;;;8.95;4.88;;;26.50;66.00;;;;;;4941099;29;20082;-79
2023/07/28 10:12:57;;;;;;;5.70;4.72;;;26.60;64.80;;;;;;4937438;29;20038;-79
2023/07/28 10:15:29;;;;;;;7.45;4.68;;;26.70;63.60;;;;;;4939122;29;20039;-81
2023/07/28 10:17:59;;;;;;;7.50;4.35;;;26.90;64.40;;;;;;4944997;29;20426;-82
2023/07/28 10:20:38;;;;;;;8.43;4.75;;;27.00;63.60;;;;;;4942794;29;20032;-83
2023/07/28 10:23:16;;;;;;;13.60;4.00;;;27.10;61.90;;;;;;4957937;29;20031;-82
2023/07/28 10:25:44;;;;;;;6.72;4.88;;;27.10;61.80;;;;;;4960216;29;20055;-83
2023/07/28 10:28:30;;;;;;;7.65;4.38;;;27.10;61.80;;;;;;4958530;28;20159;-83
2023/07/28 10:30:58;;;;;;;7.55;4.80;;;27.10;61.50;;;;;;4964451;28;20024;-83
2023/07/28 10:33:31;;;;;;;9.93;4.28;;;27.10;62.30;;;;;;4957429;28;20042;-86
2023/07/28 10:36:17;;;;;;;6.45;4.15;;;27.10;60.60;;;;;;4958821;28;20043;-85
2023/07/28 10:38:44;;;;;;;7.30;4.15;;;27.00;61.00;;;;;;4934256;29;20402;-85
2023/07/28 10:41:18;;;;;;;9.05;3.95;;;27.00;61.40;;;;;;4939115;29;20072;-84
2023/07/28 10:43:45;;;;;;;11.23;7.25;;;26.90;60.90;;;;;;4968192;28;20070;-85
2023/07/28 10:46:17;;;;;;;9.73;4.90;;;27.00;62.80;;;;;;4974851;28;20027;-85
2023/07/28 10:48:45;;;;;;;8.98;5.20;;;27.30;62.70;;;;;;4971209;28;20034;-86
2023/07/28 10:51:32;;;;;;;5.65;3.90;;;27.50;61.50;;;;;;4962805;28;20537;-85
2023/07/28 10:54:00;;;;;;;7.03;3.97;;;27.60;61.00;;;;;;4949367;29;20046;-84
2023/07/28 10:56:26;;;;;;;6.28;3.97;;;27.50;61.50;;;;;;4957267;29;20281;-85
2023/07/28 10:59:06;;;;;;;4.78;3.70;;;27.50;60.60;;;;;;4948538;29;20032;-85
2023/07/28 11:01:38;;;;;;;10.30;3.75;;;27.60;60.00;;;;;;4937419;29;20387;-85
2023/07/28 11:04:08;;;;;;;9.65;4.20;;;27.60;60.30;;;;;;4937242;29;20534;-85
2023/07/28 11:06:34;;;;;;;7.88;4.22;;;27.80;59.40;;;;;;4935128;29;20483;-85
2023/07/28 13:40:13;;;;;;;4.97;2.75;;;37.00;39.30;;;;;;5744377;23;20405;-82
2023/07/28 13:42:39;;;;;;;3.47;2.30;;;37.40;38.20;;;;;;4945949;29;20024;-83
2023/07/28 13:45:05;;;;;;;3.50;2.30;;;38.10;38.00;;;;;;4948128;29;20443;-84
2023/07/28 13:47:31;;;;;;;5.75;2.22;;;38.80;37.70;;;;;;4941858;29;20036;-84
2023/07/28 13:49:57;;;;;;;;;;;39.70;36.60;;;;;;4955709;28;20561;-82
2023/07/28 13:52:22;;;;;;;6.88;3.55;;;40.30;36.40;;;;;;4943760;29;20288;-85
2023/07/28 13:54:49;;;;;;;5.15;2.47;;;41.00;35.50;;;;;;4957822;29;20032;-80
2023/07/28 13:57:14;;;;;;;4.53;2.70;;;41.80;34.10;;;;;;4957070;28;20095;-81
2023/07/28 13:59:40;;;;;;;4.72;2.60;;;40.20;32.10;;;;;;4958751;29;20431;-81
2023/07/28 14:02:06;;;;;;;3.45;2.15;;;41.00;34.60;;;;;;4956844;28;20024;-80
2023/07/28 14:04:32;;;;;;;5.65;2.35;;;41.00;33.20;;;;;;4941683;29;20067;-82
2023/07/28 14:06:58;;;;;;;3.83;2.33;;;41.30;33.30;;;;;;4962087;29;20474;-80
2023/07/28 14:09:24;;;;;;;4.13;2.42;;;41.50;32.50;;;;;;4946270;29;20032;-81
2023/07/28 14:11:50;;;;;;;8.35;2.67;;;42.10;32.80;;;;;;4937363;29;20407;-82
2023/07/28 14:14:16;;;;;;;4.20;2.42;;;43.00;32.60;;;;;;4956835;29;20023;-81
2023/07/28 14:16:42;;;;;;;5.90;2.55;;;43.90;32.50;;;;;;4956623;29;20042;-82
2023/07/28 14:19:08;;;;;;;3.53;2.58;;;44.40;31.40;;;;;;4942144;29;20047;-82
2023/07/28 14:21:34;;;;;;;6.47;2.80;;;44.70;32.50;;;;;;4972926;28;20031;-83
2023/07/28 14:24:00;;;;;;;6.22;3.30;;;45.00;31.60;;;;;;4956687;29;20027;-83
2023/07/28 14:26:26;;;;;;;9.75;2.92;;;45.50;30.90;;;;;;4943242;29;20051;-84
2023/07/28 14:28:51;;;;;;;5.00;2.28;;;45.70;30.80;;;;;;4956004;29;20066;-83
2023/07/28 14:31:17;;;;;;;4.65;2.70;;;45.60;31.10;;;;;;4957376;29;20032;-82
2023/07/28 14:33:43;;;;;;;4.90;2.55;;;45.40;30.80;;;;;;4956945;29;20039;-83
2023/07/28 14:36:09;;;;;;;4.75;2.35;;;45.60;30.60;;;;;;4942756;29;20032;-82
2023/07/28 14:38:35;;;;;;;4.70;2.92;;;45.90;30.00;;;;;;4942890;29;20031;-84
2023/07/28 14:41:00;;;;;;;5.40;2.75;;;46.40;29.70;;;;;;4943123;29;20035;-83
2023/07/28 14:43:26;;;;;;;5.20;3.30;;;46.90;29.90;;;;;;4943003;29;20028;-84
2023/07/28 14:45:52;;;;;;;3.70;2.47;;;47.10;29.40;;;;;;4936757;29;20483;-83
2023/07/28 14:48:18;;;;;;;4.22;2.75;;;47.10;29.60;;;;;;4954628;29;20036;-84
2023/07/28 14:50:44;;;;;;;4.05;2.63;;;47.10;29.30;;;;;;4941875;29;20032;-83
2023/07/28 14:53:36;;;;;;;3.90;2.92;;;46.90;29.00;;;;;;4942763;29;20036;-84
2023/07/28 14:56:04;;;;;;;4.10;2.90;;;46.80;31.00;;;;;;4940860;29;20086;-84
2023/07/28 14:58:30;;;;;;;4.60;3.72;;;46.10;29.30;;;;;;4940528;29;20156;-83
2023/07/28 15:00:56;;;;;;;6.10;2.60;;;45.90;30.00;;;;;;4940065;29;20618;-83
2023/07/28 15:03:25;;;;;;;4.20;2.85;;;44.10;29.50;;;;;;4941474;29;20030;-83
2023/07/28 15:05:51;;;;;;;4.47;3.08;;;42.90;30.50;;;;;;4941894;29;20024;-82
2023/07/28 15:08:17;;;;;;;5.97;2.58;;;43.10;31.00;;;;;;4940196;29;20039;-85
2023/07/28 15:10:43;;;;;;;8.40;3.30;;;43.20;30.60;;;;;;4950640;29;20035;-84
2023/07/28 15:13:09;;;;;;;5.35;2.53;;;42.80;31.40;;;;;;4950324;29;20431;-84
2023/07/28 15:15:35;;;;;;;3.72;2.55;;;42.30;32.10;;;;;;4940337;29;20019;-82
2023/07/28 15:18:01;;;;;;;5.75;2.30;;;41.50;32.90;;;;;;4940634;29;20032;-82
2023/07/28 15:20:27;;;;;;;5.72;2.80;;;40.50;33.60;;;;;;4955503;29;20055;-80